Time;durP1;ratioP1;P1;durP2;ratioP2;P2;SDS_P1;SDS_P2;PMS_P1;PMS_P2;Temp;Humidity;BMP_temperature;BMP_pressure;BME280_temperature;BME280_humidity;BME280_pressure;Samples;Min_cycle;Max_cycle;Signal;HPM_P1;HPM_P2
2022/05/18 00:01:31;;;;;;;2.60;0.80;;;;;;;;;;7327750;19;162373;-18
2022/05/18 00:04:04;;;;;;;1.40;0.80;;;;;;;;;;7331157;19;153983;-19
2022/05/18 00:06:36;;;;;;;1.02;0.70;;;;;;;;;;7329887;19;153570;-18
2022/05/18 00:09:07;;;;;;;1.67;0.70;;;;;;;;;;7330586;19;161832;-18
2022/05/18 00:11:38;;;;;;;3.95;1.05;;;;;;;;;;7330242;19;162448;-17
2022/05/18 00:14:10;;;;;;;1.27;0.77;;;;;;;;;;7327420;19;154004;-19
2022/05/18 00:16:44;;;;;;;1.70;0.63;;;;;;;;;;7325005;19;154051;-19
2022/05/18 00:19:15;;;;;;;1.45;0.77;;;;;;;;;;7327655;19;161569;-17
2022/05/18 00:21:47;;;;;;;0.80;0.65;;;;;;;;;;7328427;19;162777;-18
2022/05/18 00:24:18;;;;;;;2.30;0.98;;;;;;;;;;7327460;19;154276;-18
2022/05/18 00:26:49;;;;;;;1.38;0.70;;;;;;;;;;7328733;19;153658;-18
2022/05/18 00:29:21;;;;;;;4.30;0.77;;;;;;;;;;7328783;19;161910;-18
2022/05/18 00:31:55;;;;;;;0.90;0.52;;;;;;;;;;7328710;19;162410;-18
2022/05/18 00:34:26;;;;;;;1.42;0.65;;;;;;;;;;7330196;19;154102;-18
2022/05/18 00:36:58;;;;;;;1.08;0.73;;;;;;;;;;7326751;19;153962;-19
2022/05/18 00:39:29;;;;;;;1.55;0.70;;;;;;;;;;7329881;19;161949;-19
2022/05/18 00:42:02;;;;;;;2.63;0.70;;;;;;;;;;7328741;19;162478;-19
2022/05/18 00:44:34;;;;;;;1.40;0.60;;;;;;;;;;7330252;19;154009;-20
2022/05/18 00:47:09;;;;;;;1.13;0.63;;;;;;;;;;7329135;19;153559;-19
2022/05/18 00:50:03;;;;;;;0.70;0.70;;;;;;;;;;7330005;19;161946;-22
2022/05/18 00:52:39;;;;;;;1.98;0.60;;;;;;;;;;7328917;19;162405;-19
2022/05/18 00:55:15;;;;;;;1.15;0.70;;;;;;;;;;7330198;19;153996;-18
2022/05/18 00:57:53;;;;;;;1.40;0.75;;;;;;;;;;7327958;19;153541;-20
2022/05/18 01:00:25;;;;;;;1.50;0.80;;;;;;;;;;7329867;19;162057;-19
2022/05/18 01:03:07;;;;;;;1.27;0.80;;;;;;;;;;7328415;19;162530;-19
2022/05/18 01:05:42;;;;;;;1.85;0.70;;;;;;;;;;7330103;19;154038;-19
2022/05/18 01:08:18;;;;;;;2.03;0.80;;;;;;;;;;7329751;19;153681;-19
2022/05/18 01:10:50;;;;;;;1.85;0.90;;;;;;;;;;7329257;19;161850;-19
2022/05/18 01:13:23;;;;;;;1.08;0.60;;;;;;;;;;7329285;19;162500;-18
2022/05/18 01:15:55;;;;;;;1.42;0.90;;;;;;;;;;7330137;19;154400;-19
2022/05/18 01:18:30;;;;;;;3.40;0.60;;;;;;;;;;7325801;19;153521;-30
2022/05/18 01:21:02;;;;;;;0.95;0.60;;;;;;;;;;7329423;19;162023;-18
2022/05/18 01:23:49;;;;;;;0.97;0.60;;;;;;;;;;7329317;19;162550;-17
2022/05/18 01:26:27;;;;;;;1.30;0.60;;;;;;;;;;7327558;19;153916;-21
2022/05/18 01:29:02;;;;;;;1.50;0.85;;;;;;;;;;7327115;19;153528;-17
2022/05/18 01:31:51;;;;;;;0.77;0.77;;;;;;;;;;7328513;19;162029;-18
2022/05/18 01:34:25;;;;;;;0.50;0.50;;;;;;;;;;7327994;19;162628;-17
2022/05/18 01:36:56;;;;;;;0.75;0.52;;;;;;;;;;7327680;19;154027;-18
2022/05/18 01:39:31;;;;;;;0.50;0.50;;;;;;;;;;7326855;19;154162;-17
2022/05/18 01:42:12;;;;;;;1.00;0.52;;;;;;;;;;7326748;19;161778;-17
2022/05/18 01:44:46;;;;;;;0.65;0.60;;;;;;;;;;7328857;19;162353;-19
2022/05/18 01:47:17;;;;;;;0.52;0.50;;;;;;;;;;7327974;19;154260;-18
2022/05/18 01:49:50;;;;;;;1.08;0.50;;;;;;;;;;7332305;19;154299;-18
2022/05/18 01:52:21;;;;;;;;;;;;;;;;;;7334874;19;161827;-18
2022/05/18 01:54:53;;;;;;;1.30;0.50;;;;;;;;;;7334477;19;162522;-24
2022/05/18 01:57:24;;;;;;;0.82;0.75;;;;;;;;;;7333839;19;154029;-18
2022/05/18 01:59:58;;;;;;;0.60;0.60;;;;;;;;;;7334678;19;153587;-18
2022/05/18 02:02:29;;;;;;;0.77;0.60;;;;;;;;;;7333941;19;162007;-18
2022/05/18 02:05:01;;;;;;;0.60;0.60;;;;;;;;;;7334031;19;162681;-18
2022/05/18 02:07:32;;;;;;;0.40;0.40;;;;;;;;;;7331508;19;154078;-19
2022/05/18 02:10:03;;;;;;;1.30;0.57;;;;;;;;;;7334362;19;153697;-18
2022/05/18 02:12:35;;;;;;;1.58;0.73;;;;;;;;;;7333908;19;162104;-18
2022/05/18 02:15:10;;;;;;;1.48;0.70;;;;;;;;;;7333884;19;162523;-18
2022/05/18 02:17:41;;;;;;;1.45;0.52;;;;;;;;;;7333267;19;154036;-19
2022/05/18 02:20:14;;;;;;;1.30;0.80;;;;;;;;;;7333980;19;153522;-18
2022/05/18 02:22:45;;;;;;;1.02;0.68;;;;;;;;;;7333532;19;162155;-18
2022/05/18 02:25:17;;;;;;;0.63;0.52;;;;;;;;;;7333428;19;162563;-18
2022/05/18 02:27:50;;;;;;;0.80;0.52;;;;;;;;;;7333803;19;153994;-18
2022/05/18 02:30:24;;;;;;;1.00;0.60;;;;;;;;;;7333755;19;153591;-19
2022/05/18 02:32:56;;;;;;;0.95;0.50;;;;;;;;;;7333444;19;162023;-18
2022/05/18 02:35:27;;;;;;;1.80;0.95;;;;;;;;;;7333238;19;162524;-18
2022/05/18 02:37:58;;;;;;;0.63;0.60;;;;;;;;;;7332830;19;154034;-18
2022/05/18 02:40:29;;;;;;;0.70;0.70;;;;;;;;;;7333731;19;153734;-18
2022/05/18 02:43:00;;;;;;;1.48;0.60;;;;;;;;;;7333002;19;162359;-18
2022/05/18 02:45:34;;;;;;;1.90;0.50;;;;;;;;;;7331866;19;162503;-17
2022/05/18 02:48:07;;;;;;;0.57;0.50;;;;;;;;;;7333122;19;153993;-17
2022/05/18 02:50:38;;;;;;;0.80;0.50;;;;;;;;;;7333384;19;153509;-17
2022/05/18 02:53:09;;;;;;;0.82;0.70;;;;;;;;;;7332692;19;161857;-16
2022/05/18 02:58:25;;;;;;;0.50;0.50;;;;;;;;;;7331737;19;154030;-18
2022/05/18 03:00:59;;;;;;;1.30;0.50;;;;;;;;;;7332252;19;153535;-18
2022/05/18 03:03:31;;;;;;;2.92;0.50;;;;;;;;;;7332317;19;161844;-19
2022/05/18 03:06:03;;;;;;;2.10;0.60;;;;;;;;;;7332156;19;162392;-18
2022/05/18 03:08:35;;;;;;;0.88;0.50;;;;;;;;;;7332692;19;153987;-19
2022/05/18 03:11:07;;;;;;;0.70;0.60;;;;;;;;;;7332506;19;154056;-18
2022/05/18 03:13:38;;;;;;;0.50;0.50;;;;;;;;;;7330928;19;161813;-18
2022/05/18 03:16:12;;;;;;;0.50;0.50;;;;;;;;;;7332266;19;162500;-17
2022/05/18 03:18:44;;;;;;;1.05;0.40;;;;;;;;;;7331227;19;154171;-17
2022/05/18 03:23:59;;;;;;;0.57;0.40;;;;;;;;;;7331499;19;161812;-18
2022/05/18 03:26:30;;;;;;;0.57;0.57;;;;;;;;;;7336539;19;162395;-17
2022/05/18 03:29:01;;;;;;;0.40;0.40;;;;;;;;;;7332166;19;153964;-17
2022/05/18 03:31:35;;;;;;;0.63;0.50;;;;;;;;;;7332381;19;153562;-17
2022/05/18 03:34:08;;;;;;;0.40;0.40;;;;;;;;;;7331875;19;161622;-17
2022/05/18 03:36:39;;;;;;;0.52;0.50;;;;;;;;;;7331380;19;162395;-16
2022/05/18 03:39:11;;;;;;;0.50;0.50;;;;;;;;;;7330534;19;154039;-17
2022/05/18 03:41:43;;;;;;;0.60;0.52;;;;;;;;;;7332452;19;153515;-17
2022/05/18 03:44:14;;;;;;;0.50;0.50;;;;;;;;;;7334728;19;161900;-17
2022/05/18 03:46:48;;;;;;;0.60;0.60;;;;;;;;;;7334973;19;163055;-17
2022/05/18 03:49:19;;;;;;;3.00;0.57;;;;;;;;;;7335083;19;154037;-25
2022/05/18 03:51:50;;;;;;;1.30;0.50;;;;;;;;;;7334766;19;153647;-17
2022/05/18 03:54:21;;;;;;;0.45;0.45;;;;;;;;;;7334427;19;162582;-17
2022/05/18 03:56:53;;;;;;;0.50;0.50;;;;;;;;;;7334066;19;162367;-17
2022/05/18 03:59:24;;;;;;;0.57;0.50;;;;;;;;;;7332026;19;153999;-23
2022/05/18 04:01:58;;;;;;;0.60;0.50;;;;;;;;;;7335160;19;153674;-22
2022/05/18 04:04:29;;;;;;;1.48;0.60;;;;;;;;;;7333223;19;161951;-18
2022/05/18 04:07:00;;;;;;;0.65;0.60;;;;;;;;;;7332263;19;162138;-18
2022/05/18 04:09:32;;;;;;;0.30;0.30;;;;;;;;;;7335034;19;153904;-18
2022/05/18 04:12:03;;;;;;;1.08;0.63;;;;;;;;;;7328923;19;153485;-17
2022/05/18 04:14:34;;;;;;;1.45;0.50;;;;;;;;;;7330764;19;161819;-18
2022/05/18 04:17:08;;;;;;;1.08;0.60;;;;;;;;;;7330694;19;162432;-17
2022/05/18 04:19:40;;;;;;;0.50;0.40;;;;;;;;;;7329148;19;155315;-17
2022/05/18 04:22:11;;;;;;;0.52;0.50;;;;;;;;;;7330807;19;153553;-17
2022/05/18 04:24:42;;;;;;;0.40;0.40;;;;;;;;;;7330475;19;162245;-17
2022/05/18 04:27:14;;;;;;;0.95;0.52;;;;;;;;;;7330313;19;162620;-17
2022/05/18 04:29:45;;;;;;;0.98;0.60;;;;;;;;;;7330593;19;154005;-17
2022/05/18 04:32:20;;;;;;;0.50;0.50;;;;;;;;;;7329321;19;153388;-17
2022/05/18 04:34:52;;;;;;;0.38;0.38;;;;;;;;;;7330057;19;162270;-17
2022/05/18 04:37:23;;;;;;;0.82;0.40;;;;;;;;;;7330059;19;162373;-17
2022/05/18 04:39:54;;;;;;;1.02;0.50;;;;;;;;;;7328666;19;154314;-17
2022/05/18 04:42:25;;;;;;;0.60;0.60;;;;;;;;;;7330212;19;153576;-17
2022/05/18 04:44:57;;;;;;;0.50;0.50;;;;;;;;;;7328389;19;161786;-17
2022/05/18 04:47:31;;;;;;;0.88;0.60;;;;;;;;;;7329863;19;162576;-16
2022/05/18 04:50:02;;;;;;;0.55;0.50;;;;;;;;;;7330041;19;154066;-17
2022/05/18 04:52:33;;;;;;;0.43;0.40;;;;;;;;;;7329949;19;153538;-16
2022/05/18 04:55:05;;;;;;;0.47;0.47;;;;;;;;;;7329495;19;161968;-17
2022/05/18 04:57:37;;;;;;;0.50;0.50;;;;;;;;;;7329353;19;163008;-19
2022/05/18 05:00:11;;;;;;;0.90;0.60;;;;;;;;;;7328048;19;154050;-17
2022/05/18 05:02:45;;;;;;;0.55;0.55;;;;;;;;;;7328340;19;153668;-17
2022/05/18 05:05:17;;;;;;;0.63;0.50;;;;;;;;;;7329211;19;161773;-17
2022/05/18 05:07:48;;;;;;;0.45;0.45;;;;;;;;;;7326272;19;162504;-17
2022/05/18 05:10:20;;;;;;;0.40;0.32;;;;;;;;;;7329395;19;154039;-17
2022/05/18 05:12:51;;;;;;;0.50;0.50;;;;;;;;;;7329424;19;153573;-17
2022/05/18 05:15:22;;;;;;;0.40;0.40;;;;;;;;;;7328840;19;162001;-17
2022/05/18 05:17:57;;;;;;;0.75;0.70;;;;;;;;;;7328737;19;162519;-17
2022/05/18 05:20:28;;;;;;;0.40;0.40;;;;;;;;;;7327213;19;153976;-17
2022/05/18 05:22:59;;;;;;;0.50;0.43;;;;;;;;;;7331065;19;153595;-17
2022/05/18 05:25:31;;;;;;;0.55;0.40;;;;;;;;;;7335181;19;161827;-18
2022/05/18 05:28:03;;;;;;;0.60;0.43;;;;;;;;;;7334219;19;162625;-17
2022/05/18 05:30:55;;;;;;;;;;;;;;;;;;7336294;19;153963;-18
2022/05/18 05:33:29;;;;;;;0.50;0.50;;;;;;;;;;7339053;19;153400;-18
2022/05/18 05:36:01;;;;;;;0.88;0.70;;;;;;;;;;7338823;19;162220;-18
2022/05/18 05:38:32;;;;;;;0.95;0.95;;;;;;;;;;7335000;19;162655;-18
2022/05/18 05:41:04;;;;;;;1.10;0.93;;;;;;;;;;7333571;19;154295;-18
2022/05/18 05:43:35;;;;;;;1.75;1.00;;;;;;;;;;7335333;19;153591;-18
2022/05/18 05:46:10;;;;;;;2.35;1.25;;;;;;;;;;7334971;19;161862;-18
2022/05/18 05:48:48;;;;;;;2.30;1.40;;;;;;;;;;7334676;19;162655;-19
2022/05/18 05:51:23;;;;;;;5.32;1.70;;;;;;;;;;7334672;19;154049;-19
2022/05/18 05:53:55;;;;;;;3.95;2.03;;;;;;;;;;7335111;19;153568;-19
2022/05/18 05:56:26;;;;;;;10.98;5.00;;;;;;;;;;7332243;19;161967;-18
2022/05/18 05:58:58;;;;;;;11.35;3.83;;;;;;;;;;7334479;19;162400;-18
2022/05/18 06:01:30;;;;;;;13.77;6.50;;;;;;;;;;7332836;19;154197;-19
2022/05/18 06:04:07;;;;;;;8.07;4.25;;;;;;;;;;7333134;19;153775;-19
2022/05/18 06:06:38;;;;;;;10.63;3.38;;;;;;;;;;7333272;19;161803;-18
2022/05/18 06:09:11;;;;;;;11.70;3.53;;;;;;;;;;7334104;19;162403;-18
2022/05/18 06:11:42;;;;;;;9.25;3.00;;;;;;;;;;7334444;19;154111;-18
2022/05/18 06:14:15;;;;;;;3.20;2.30;;;;;;;;;;7334206;19;153662;-18
2022/05/18 06:16:46;;;;;;;3.30;2.15;;;;;;;;;;7334100;19;161842;-18
2022/05/18 06:19:21;;;;;;;4.18;2.55;;;;;;;;;;7333908;19;162457;-18
2022/05/18 06:21:53;;;;;;;4.15;2.15;;;;;;;;;;7331911;19;154004;-17
2022/05/18 06:24:24;;;;;;;3.97;2.17;;;;;;;;;;7334022;19;153527;-18
2022/05/18 06:26:58;;;;;;;4.10;2.08;;;;;;;;;;7332165;19;161962;-18
2022/05/18 06:29:30;;;;;;;4.25;2.53;;;;;;;;;;7333270;19;162262;-18
2022/05/18 06:32:01;;;;;;;3.47;1.77;;;;;;;;;;7333818;19;154038;-18
2022/05/18 06:34:35;;;;;;;2.15;1.60;;;;;;;;;;7332146;19;153963;-19
2022/05/18 06:37:07;;;;;;;3.95;2.30;;;;;;;;;;7332173;19;162149;-19
2022/05/18 06:39:38;;;;;;;4.38;2.30;;;;;;;;;;7333213;19;162502;-18
2022/05/18 06:42:10;;;;;;;4.07;1.90;;;;;;;;;;7331442;19;154538;-18
2022/05/18 06:44:45;;;;;;;3.45;2.00;;;;;;;;;;7332393;19;153653;-18
2022/05/18 06:47:18;;;;;;;4.20;1.77;;;;;;;;;;7331774;19;162027;-18
2022/05/18 06:49:52;;;;;;;1.67;1.33;;;;;;;;;;7332985;19;162382;-18
2022/05/18 06:52:23;;;;;;;4.03;2.13;;;;;;;;;;7333271;19;154110;-18
2022/05/18 06:54:54;;;;;;;2.53;1.85;;;;;;;;;;7333144;19;153572;-18
2022/05/18 06:57:28;;;;;;;2.25;1.80;;;;;;;;;;7332702;19;161807;-18
2022/05/18 06:59:59;;;;;;;3.17;2.17;;;;;;;;;;7332676;19;162675;-23
2022/05/18 07:02:31;;;;;;;2.30;1.95;;;;;;;;;;7330495;19;154379;-17
2022/05/18 07:05:06;;;;;;;3.03;1.80;;;;;;;;;;7332630;19;153861;-17
2022/05/18 07:07:37;;;;;;;3.53;1.90;;;;;;;;;;7330163;19;161801;-18
2022/05/18 07:10:10;;;;;;;2.90;1.70;;;;;;;;;;7331326;19;162426;-18
2022/05/18 07:12:41;;;;;;;2.83;1.90;;;;;;;;;;7331248;19;154028;-18
2022/05/18 07:15:13;;;;;;;3.22;1.90;;;;;;;;;;7332547;19;153972;-17
2022/05/18 07:17:44;;;;;;;2.65;1.60;;;;;;;;;;7332414;19;161811;-18
2022/05/18 07:20:33;;;;;;;2.45;1.60;;;;;;;;;;7332267;19;162471;-18
2022/05/18 07:23:04;;;;;;;2.05;1.40;;;;;;;;;;7332604;19;153965;-18
2022/05/18 07:25:36;;;;;;;1.73;1.58;;;;;;;;;;7331483;19;153732;-19
2022/05/18 07:28:08;;;;;;;3.50;1.85;;;;;;;;;;7332248;19;161990;-18
2022/05/18 07:30:56;;;;;;;2.35;1.77;;;;;;;;;;7331900;19;162580;-18
2022/05/18 07:33:29;;;;;;;2.78;2.15;;;;;;;;;;7331989;19;154075;-19
2022/05/18 07:36:04;;;;;;;1.67;1.50;;;;;;;;;;7331897;19;153761;-18
2022/05/18 07:38:39;;;;;;;2.85;1.65;;;;;;;;;;7334345;19;161972;-19
2022/05/18 07:41:13;;;;;;;4.22;1.70;;;;;;;;;;7331100;19;162497;-18
2022/05/18 07:43:44;;;;;;;2.67;1.90;;;;;;;;;;7331131;19;154036;-18
2022/05/18 07:46:33;;;;;;;1.88;1.67;;;;;;;;;;7329106;19;153764;-18
2022/05/18 07:49:06;;;;;;;1.85;1.70;;;;;;;;;;7331471;19;161895;-19
2022/05/18 07:51:40;;;;;;;2.22;1.98;;;;;;;;;;7331266;19;162359;-18
2022/05/18 07:54:13;;;;;;;3.25;1.50;;;;;;;;;;7331584;19;153948;-18
2022/05/18 07:56:44;;;;;;;3.67;1.83;;;;;;;;;;7331209;19;153411;-18
2022/05/18 07:59:16;;;;;;;4.90;1.83;;;;;;;;;;7330656;19;161737;-18
2022/05/18 08:01:50;;;;;;;2.35;1.38;;;;;;;;;;7328942;19;162351;-18
2022/05/18 08:04:22;;;;;;;3.75;1.80;;;;;;;;;;7326877;19;154305;-18
2022/05/18 08:06:57;;;;;;;5.03;1.70;;;;;;;;;;7332146;19;153540;-17
2022/05/18 08:09:29;;;;;;;2.00;1.60;;;;;;;;;;7331881;19;161853;-18
2022/05/18 08:17:28;;;;;;;1.90;1.20;;;;;;;;;;7334695;19;153644;-18
2022/05/18 08:20:00;;;;;;;2.95;1.35;;;;;;;;;;7330346;19;161997;-19
2022/05/18 08:22:33;;;;;;;6.10;1.65;;;;;;;;;;7327531;19;162659;-18
2022/05/18 08:25:05;;;;;;;2.85;1.35;;;;;;;;;;7331610;19;154077;-18
2022/05/18 08:27:37;;;;;;;2.80;1.50;;;;;;;;;;7330538;19;153634;-18
2022/05/18 08:30:10;;;;;;;2.90;1.38;;;;;;;;;;7331746;19;161852;-18
2022/05/18 08:32:41;;;;;;;4.13;1.67;;;;;;;;;;7328843;19;162400;-18
2022/05/18 08:35:14;;;;;;;2.63;1.65;;;;;;;;;;7332772;19;154043;-18
2022/05/18 08:37:50;;;;;;;6.53;1.55;;;;;;;;;;7331635;19;154306;-19
2022/05/18 08:40:43;;;;;;;3.33;1.58;;;;;;;;;;7334080;19;161700;-18
2022/05/18 08:43:22;;;;;;;2.45;1.30;;;;;;;;;;7328074;19;162386;-18
2022/05/18 08:46:02;;;;;;;2.25;1.42;;;;;;;;;;7328744;19;154301;-19
2022/05/18 08:48:44;;;;;;;2.25;1.60;;;;;;;;;;7332326;19;154400;-18
2022/05/18 08:51:33;;;;;;;1.52;1.40;;;;;;;;;;7329482;19;162375;-19
2022/05/18 08:54:24;;;;;;;1.43;1.33;;;;;;;;;;7332666;19;162464;-19
2022/05/18 08:56:59;;;;;;;1.90;1.50;;;;;;;;;;7329601;19;153984;-18
2022/05/18 08:59:39;;;;;;;2.15;1.50;;;;;;;;;;7328758;19;153802;-19
2022/05/18 09:02:16;;;;;;;2.72;1.63;;;;;;;;;;7330020;19;161774;-18
2022/05/18 09:04:53;;;;;;;4.20;1.48;;;;;;;;;;7329049;19;162322;-18
2022/05/18 09:07:50;;;;;;;1.48;1.38;;;;;;;;;;7330931;19;154105;-18
2022/05/18 09:10:31;;;;;;;2.05;1.42;;;;;;;;;;7328960;19;132433;-18
2022/05/18 09:13:04;;;;;;;3.45;1.50;;;;;;;;;;7331330;19;161995;-18
2022/05/18 09:15:40;;;;;;;1.55;1.42;;;;;;;;;;7325899;19;162402;-18
2022/05/18 09:18:22;;;;;;;5.22;1.88;;;;;;;;;;7333257;19;153919;-18
2022/05/18 09:21:04;;;;;;;3.55;1.50;;;;;;;;;;7330004;19;153607;-18
2022/05/18 09:23:50;;;;;;;3.80;1.33;;;;;;;;;;7328867;19;162003;-18
2022/05/18 09:26:50;;;;;;;2.20;1.35;;;;;;;;;;7331558;19;162574;-19
2022/05/18 09:29:29;;;;;;;3.25;1.70;;;;;;;;;;7329819;19;153972;-19
2022/05/18 09:32:33;;;;;;;2.05;1.52;;;;;;;;;;7331141;19;153797;-18
2022/05/18 09:35:29;;;;;;;1.85;1.60;;;;;;;;;;7331695;19;162007;-18
2022/05/18 09:38:05;;;;;;;1.42;1.30;;;;;;;;;;7330333;19;162966;-19
2022/05/18 09:40:43;;;;;;;2.50;1.60;;;;;;;;;;7331866;19;154089;-24
2022/05/18 09:43:24;;;;;;;4.32;1.30;;;;;;;;;;7326727;19;153932;-19
2022/05/18 09:45:57;;;;;;;2.15;1.77;;;;;;;;;;7330249;19;161878;-18
2022/05/18 09:48:39;;;;;;;4.35;1.40;;;;;;;;;;7330835;19;163770;-27
2022/05/18 09:51:11;;;;;;;1.73;1.30;;;;;;;;;;7328670;19;153974;-18
2022/05/18 09:53:43;;;;;;;1.53;1.40;;;;;;;;;;7329802;19;153591;-18
2022/05/18 09:56:20;;;;;;;1.35;1.23;;;;;;;;;;7330374;19;162189;-18
2022/05/18 09:59:00;;;;;;;1.90;1.20;;;;;;;;;;7331372;19;162592;-19
2022/05/18 10:09:55;;;;;;;2.72;1.58;;;;;;;;;;7331630;19;162712;-18
2022/05/18 10:12:38;;;;;;;1.40;1.30;;;;;;;;;;7337849;19;153982;-18
2022/05/18 10:15:24;;;;;;;2.53;1.20;;;;;;;;;;7335009;19;154811;-17
2022/05/18 10:17:59;;;;;;;1.33;1.23;;;;;;;;;;7333985;19;161964;-18
2022/05/18 10:20:33;;;;;;;1.48;1.38;;;;;;;;;;7335449;19;162792;-18
2022/05/18 10:23:06;;;;;;;2.05;1.50;;;;;;;;;;7336976;19;154161;-18
2022/05/18 10:25:43;;;;;;;2.17;1.40;;;;;;;;;;7332790;19;153369;-17
2022/05/18 10:28:21;;;;;;;4.07;1.33;;;;;;;;;;7335383;19;162589;-17
2022/05/18 10:31:01;;;;;;;3.90;1.60;;;;;;;;;;7337382;19;162407;-17
2022/05/18 10:33:35;;;;;;;1.30;1.20;;;;;;;;;;7329537;19;153982;-17
2022/05/18 10:36:13;;;;;;;2.08;1.33;;;;;;;;;;7332172;19;153524;-17
2022/05/18 10:38:53;;;;;;;3.55;1.45;;;;;;;;;;7334364;19;161955;-17
2022/05/18 10:41:28;;;;;;;1.42;1.33;;;;;;;;;;7336964;19;162302;-18
2022/05/18 10:44:06;;;;;;;1.45;1.35;;;;;;;;;;7332861;19;154019;-17
2022/05/18 10:46:43;;;;;;;3.70;1.40;;;;;;;;;;7334220;19;153717;-17
2022/05/18 10:49:32;;;;;;;3.25;1.08;;;;;;;;;;7336806;19;162128;-18
2022/05/18 10:52:14;;;;;;;2.13;1.40;;;;;;;;;;7333168;19;162814;-18
2022/05/18 10:54:56;;;;;;;2.75;1.23;;;;;;;;;;7335871;19;154105;-18
2022/05/18 10:57:34;;;;;;;2.55;1.30;;;;;;;;;;7332846;19;153549;-18
2022/05/18 11:00:12;;;;;;;1.67;1.30;;;;;;;;;;7336405;19;161573;-18
2022/05/18 11:02:52;;;;;;;2.10;1.25;;;;;;;;;;7332389;19;162522;-18
2022/05/18 11:05:34;;;;;;;1.83;1.10;;;;;;;;;;7333199;19;154295;-18
2022/05/18 11:08:07;;;;;;;2.28;1.30;;;;;;;;;;7332102;19;153520;-18
2022/05/18 11:10:41;;;;;;;;;;;;;;;;;;7336445;19;161820;-18
2022/05/18 11:13:17;;;;;;;1.65;1.30;;;;;;;;;;7335202;19;162526;-18
2022/05/18 11:15:58;;;;;;;1.75;1.27;;;;;;;;;;7332352;19;154434;-18
2022/05/18 11:18:41;;;;;;;2.15;1.55;;;;;;;;;;7336334;19;153852;-17
2022/05/18 11:21:19;;;;;;;2.53;1.30;;;;;;;;;;7331675;19;161870;-18
2022/05/18 11:24:02;;;;;;;1.13;1.05;;;;;;;;;;7330818;19;162413;-18
2022/05/18 11:26:41;;;;;;;1.50;1.33;;;;;;;;;;7330159;19;154047;-17
2022/05/18 11:29:40;;;;;;;3.63;1.60;;;;;;;;;;7334444;19;153518;-18
2022/05/18 11:32:33;;;;;;;1.42;1.33;;;;;;;;;;7334920;19;162223;-19
2022/05/18 11:35:22;;;;;;;1.48;1.38;;;;;;;;;;7331229;19;162466;-17
2022/05/18 11:38:10;;;;;;;1.58;1.33;;;;;;;;;;7333158;19;154060;-18
2022/05/18 11:40:51;;;;;;;2.33;1.17;;;;;;;;;;7330622;19;153494;-20
2022/05/18 11:43:37;;;;;;;2.55;1.50;;;;;;;;;;7334934;19;161829;-18
2022/05/18 11:46:26;;;;;;;1.73;1.20;;;;;;;;;;7330435;19;162457;-19
2022/05/18 11:49:09;;;;;;;1.77;1.10;;;;;;;;;;7331876;19;154209;-18
2022/05/18 11:52:00;;;;;;;2.30;1.27;;;;;;;;;;7333735;19;153615;-18
2022/05/18 11:54:51;;;;;;;1.75;1.55;;;;;;;;;;7331254;19;161840;-18
2022/05/18 11:57:32;;;;;;;1.85;1.58;;;;;;;;;;7333626;19;162369;-18
2022/05/18 12:00:11;;;;;;;1.25;1.20;;;;;;;;;;7330844;19;153799;-18
2022/05/18 12:03:03;;;;;;;1.30;1.20;;;;;;;;;;7332824;19;153620;-18
2022/05/18 12:05:54;;;;;;;1.58;1.48;;;;;;;;;;7332030;19;161890;-18
2022/05/18 12:08:52;;;;;;;1.80;1.30;;;;;;;;;;7333382;19;162416;-18
2022/05/18 12:11:33;;;;;;;1.65;1.40;;;;;;;;;;7330795;19;153976;-18
2022/05/18 12:14:16;;;;;;;1.48;1.30;;;;;;;;;;7333811;19;153556;-17
2022/05/18 12:16:55;;;;;;;1.42;1.08;;;;;;;;;;7330759;19;162053;-18
2022/05/18 12:19:38;;;;;;;1.50;0.90;;;;;;;;;;7330342;19;162654;-18
2022/05/18 12:22:15;;;;;;;1.83;1.23;;;;;;;;;;7330819;19;153976;-18
2022/05/18 12:24:50;;;;;;;1.90;1.13;;;;;;;;;;7332376;19;153527;-18
2022/05/18 12:27:25;;;;;;;1.90;1.55;;;;;;;;;;7334135;19;161904;-18
2022/05/18 12:30:00;;;;;;;1.25;1.13;;;;;;;;;;7330726;19;162433;-19
2022/05/18 12:32:32;;;;;;;1.27;1.00;;;;;;;;;;7328302;19;154119;-18
2022/05/18 12:35:14;;;;;;;1.20;1.10;;;;;;;;;;7332526;19;153598;-19
2022/05/18 12:38:04;;;;;;;1.10;0.90;;;;;;;;;;7329830;19;161921;-19
2022/05/18 12:40:49;;;;;;;1.45;1.00;;;;;;;;;;7333092;19;163093;-18
2022/05/18 12:43:28;;;;;;;1.20;1.10;;;;;;;;;;7329661;19;153955;-18
2022/05/18 12:46:03;;;;;;;1.95;1.30;;;;;;;;;;7331639;19;153490;-18
2022/05/18 12:48:39;;;;;;;1.52;1.42;;;;;;;;;;7331778;19;161872;-17
2022/05/18 12:51:38;;;;;;;2.30;1.20;;;;;;;;;;7329464;19;162509;-17
2022/05/18 12:54:26;;;;;;;1.80;1.40;;;;;;;;;;7329755;19;154013;-16
2022/05/18 12:57:20;;;;;;;1.67;1.58;;;;;;;;;;7330623;19;153459;-18
2022/05/18 13:00:05;;;;;;;;;;;;;;;;;;7333384;19;161798;-17
2022/05/18 13:02:41;;;;;;;1.73;1.60;;;;;;;;;;7327869;19;162593;-17
2022/05/18 13:05:33;;;;;;;3.67;1.73;;;;;;;;;;7328463;19;154195;-17
2022/05/18 13:08:13;;;;;;;2.25;1.40;;;;;;;;;;7326894;19;153597;-17
2022/05/18 13:11:12;;;;;;;2.28;1.50;;;;;;;;;;7331887;19;161878;-17
2022/05/18 13:14:25;;;;;;;3.13;1.52;;;;;;;;;;7329222;19;162541;-17
2022/05/18 13:17:24;;;;;;;2.33;1.48;;;;;;;;;;7331418;19;155591;-18
2022/05/18 13:20:07;;;;;;;2.83;2.03;;;;;;;;;;7332736;19;153479;-19
2022/05/18 13:22:50;;;;;;;2.65;2.20;;;;;;;;;;7331270;19;161872;-18
2022/05/18 13:25:22;;;;;;;3.08;2.53;;;;;;;;;;7330140;19;162396;-18
2022/05/18 13:27:57;;;;;;;3.00;2.25;;;;;;;;;;7331673;19;154196;-18
2022/05/18 13:30:42;;;;;;;3.72;2.22;;;;;;;;;;7332101;19;153898;-18
2022/05/18 13:33:45;;;;;;;4.72;2.30;;;;;;;;;;7331503;19;161942;-18
2022/05/18 13:36:16;;;;;;;2.42;1.80;;;;;;;;;;7332216;19;162524;-19
2022/05/18 13:38:50;;;;;;;4.53;1.92;;;;;;;;;;7331087;19;153953;-18
2022/05/18 13:41:22;;;;;;;2.53;2.15;;;;;;;;;;7331436;19;153813;-18
2022/05/18 13:43:59;;;;;;;10.88;4.72;;;;;;;;;;7334217;19;161770;-18
2022/05/18 13:46:36;;;;;;;21.90;8.57;;;;;;;;;;7336427;19;162770;-18
2022/05/18 13:49:11;;;;;;;26.30;10.60;;;;;;;;;;7334548;19;154059;-19
2022/05/18 13:51:52;;;;;;;25.92;9.80;;;;;;;;;;7335258;19;153612;-18
2022/05/18 13:54:27;;;;;;;20.85;8.90;;;;;;;;;;7334622;19;161843;-18
2022/05/18 13:57:06;;;;;;;24.92;9.00;;;;;;;;;;7334491;19;162487;-18
2022/05/18 13:59:44;;;;;;;16.25;8.10;;;;;;;;;;7335068;19;154004;-18
2022/05/18 14:02:22;;;;;;;17.00;7.93;;;;;;;;;;7335165;19;153660;-18
2022/05/18 14:04:58;;;;;;;20.85;7.85;;;;;;;;;;7334520;19;161714;-18
2022/05/18 14:07:32;;;;;;;13.00;6.53;;;;;;;;;;7331418;19;162381;-17
2022/05/18 14:10:11;;;;;;;11.85;6.97;;;;;;;;;;7334932;19;153913;-18
2022/05/18 14:12:47;;;;;;;17.67;7.43;;;;;;;;;;7334853;19;153583;-18
2022/05/18 14:15:21;;;;;;;15.40;7.20;;;;;;;;;;7334450;19;161541;-18
2022/05/18 14:17:57;;;;;;;16.23;6.78;;;;;;;;;;7334164;19;162392;-18
2022/05/18 14:20:32;;;;;;;19.63;7.40;;;;;;;;;;7334713;19;153944;-18
2022/05/18 14:23:21;;;;;;;12.63;6.75;;;;;;;;;;7334430;19;153587;-18
2022/05/18 14:25:54;;;;;;;17.10;6.65;;;;;;;;;;7333138;19;161852;-18
2022/05/18 14:28:29;;;;;;;11.73;6.25;;;;;;;;;;7332626;19;162473;-18
2022/05/18 14:31:03;;;;;;;12.63;5.28;;;;;;;;;;7334049;19;154088;-18
2022/05/18 14:33:43;;;;;;;15.45;5.43;;;;;;;;;;7333821;19;153545;-18
2022/05/18 14:36:25;;;;;;;13.13;6.00;;;;;;;;;;7333098;19;161872;-18
2022/05/18 14:39:01;;;;;;;13.80;5.45;;;;;;;;;;7332861;19;162362;-17
2022/05/18 14:41:38;;;;;;;12.15;5.20;;;;;;;;;;7333393;19;153896;-17
2022/05/18 14:44:12;;;;;;;12.70;5.07;;;;;;;;;;7333775;19;153576;-17
2022/05/18 14:46:48;;;;;;;11.40;5.25;;;;;;;;;;7331696;19;161731;-17
2022/05/18 14:49:26;;;;;;;8.93;4.68;;;;;;;;;;7333294;19;162547;-18
2022/05/18 14:52:05;;;;;;;9.95;5.15;;;;;;;;;;7333697;19;154061;-18
2022/05/18 14:54:37;;;;;;;7.82;4.35;;;;;;;;;;7333715;19;153513;-18
2022/05/18 14:57:14;;;;;;;10.32;4.40;;;;;;;;;;7331775;19;162034;-18
2022/05/18 14:59:50;;;;;;;5.97;4.10;;;;;;;;;;7332827;19;162525;-17
2022/05/18 15:02:22;;;;;;;7.72;4.20;;;;;;;;;;7332899;19;154002;-17
2022/05/18 15:05:03;;;;;;;6.80;4.00;;;;;;;;;;7333143;19;153646;-18
2022/05/18 15:07:37;;;;;;;8.60;3.58;;;;;;;;;;7330231;19;161805;-18
2022/05/18 15:10:19;;;;;;;8.38;3.95;;;;;;;;;;7332674;19;162653;-17
2022/05/18 15:12:54;;;;;;;;;;;;;;;;;;7333321;19;154344;-25
2022/05/18 15:15:29;;;;;;;4.95;3.78;;;;;;;;;;7332710;19;153608;-18
2022/05/18 15:18:05;;;;;;;7.22;3.40;;;;;;;;;;7331850;19;161962;-18
2022/05/18 15:20:46;;;;;;;6.72;3.60;;;;;;;;;;7331624;19;162346;-17
2022/05/18 15:23:21;;;;;;;5.93;2.80;;;;;;;;;;7332125;19;154398;-19
2022/05/18 15:26:02;;;;;;;5.13;2.85;;;;;;;;;;7332162;19;153522;-18
2022/05/18 15:28:42;;;;;;;7.32;2.63;;;;;;;;;;7331747;19;161770;-20
2022/05/18 15:31:16;;;;;;;8.50;3.75;;;;;;;;;;7331842;19;162513;-19
2022/05/18 15:33:54;;;;;;;5.28;3.10;;;;;;;;;;7334605;19;154360;-18
2022/05/18 15:36:29;;;;;;;6.68;3.35;;;;;;;;;;7331876;19;153672;-18
2022/05/18 15:39:03;;;;;;;6.75;3.13;;;;;;;;;;7331189;19;162034;-18
2022/05/18 15:41:34;;;;;;;5.20;3.03;;;;;;;;;;7331538;19;162372;-19
2022/05/18 15:44:06;;;;;;;6.07;2.60;;;;;;;;;;7331657;19;153968;-18